createdAt,value
2019-06-08T00:00:37.795Z,75.50
2019-06-08T00:03:05.458Z,75.60
2019-06-08T00:05:32.867Z,75.80
2019-06-08T00:08:00.205Z,76.10
2019-06-08T00:10:27.553Z,76.20
2019-06-08T00:12:54.903Z,76.30
2019-06-08T00:15:22.404Z,76.20
2019-06-08T00:17:49.756Z,76.20
2019-06-08T00:20:17.701Z,76.10
2019-06-08T00:22:45.180Z,76.20
2019-06-08T00:25:13.743Z,75.60
2019-06-08T00:27:41.237Z,75.50
2019-06-08T00:30:08.693Z,75.10
2019-06-08T00:32:36.037Z,75.00
2019-06-08T00:35:03.658Z,74.60
2019-06-08T00:37:30.967Z,74.20
2019-06-08T00:39:58.298Z,74.20
2019-06-08T00:42:25.725Z,73.40
2019-06-08T00:44:53.078Z,72.10
2019-06-08T00:47:20.573Z,71.50
2019-06-08T00:49:48.025Z,70.40
2019-06-08T00:52:15.356Z,69.70
2019-06-08T00:54:42.701Z,69.30
2019-06-08T00:57:09.903Z,68.80
2019-06-08T00:59:37.353Z,68.50
2019-06-08T01:02:04.666Z,68.30
2019-06-08T01:04:32.011Z,68.10
2019-06-08T01:06:59.445Z,67.40
2019-06-08T01:09:27.930Z,67.30
2019-06-08T01:11:55.360Z,67.10
2019-06-08T01:14:22.959Z,67.20
2019-06-08T01:16:50.305Z,67.50
2019-06-08T01:19:19.086Z,67.60
2019-06-08T01:21:46.597Z,67.70
2019-06-08T01:24:13.999Z,67.90
2019-06-08T01:26:41.227Z,68.00
2019-06-08T01:29:08.619Z,68.20
2019-06-08T01:31:35.957Z,68.30
2019-06-08T01:34:03.555Z,68.40
2019-06-08T01:36:31.197Z,68.50
2019-06-08T01:38:58.625Z,68.70
2019-06-08T01:41:25.962Z,68.80
2019-06-08T01:43:53.229Z,69.20
2019-06-08T01:46:21.796Z,69.10
2019-06-08T01:48:49.265Z,69.10
2019-06-08T01:51:16.796Z,69.20
2019-06-08T01:53:45.613Z,69.10
2019-06-08T01:56:12.941Z,69.20
2019-06-08T01:58:40.244Z,69.40
2019-06-08T02:01:07.570Z,69.50
2019-06-08T02:03:34.997Z,69.70
2019-06-08T02:06:02.601Z,70.40
2019-06-08T02:08:30.635Z,70.00
2019-06-08T02:10:58.015Z,69.90
2019-06-08T02:13:25.279Z,69.80
2019-06-08T02:15:53.656Z,70.00
2019-06-08T02:18:35.488Z,69.90
2019-06-08T02:20:50.289Z,69.80
2019-06-08T02:23:17.593Z,70.00
2019-06-08T02:25:44.941Z,70.10
2019-06-08T02:28:12.296Z,70.10
2019-06-08T02:30:41.886Z,70.00
2019-06-08T02:33:08.683Z,69.80
2019-06-08T02:35:37.746Z,69.30
2019-06-08T02:38:05.215Z,69.80
2019-06-08T02:40:36.898Z,70.00
2019-06-08T02:43:04.409Z,70.00
2019-06-08T02:45:32.576Z,70.20
2019-06-08T02:48:01.095Z,70.30
2019-06-08T02:50:48.979Z,70.30
2019-06-08T02:53:17.161Z,69.70
2019-06-08T02:55:46.431Z,69.80
2019-06-08T02:58:14.917Z,70.10
2019-06-08T03:00:44.294Z,70.00
2019-06-08T03:03:12.550Z,69.40
2019-06-08T03:05:41.027Z,68.80
2019-06-08T03:08:09.384Z,68.50
2019-06-08T03:10:37.185Z,68.30
2019-06-08T03:13:04.917Z,68.20
2019-06-08T03:15:34.519Z,68.50
2019-06-08T03:18:01.776Z,68.40
2019-06-08T03:20:29.091Z,68.30
2019-06-08T03:22:56.506Z,68.00
2019-06-08T03:25:23.822Z,67.70
2019-06-08T03:27:51.109Z,67.60
2019-06-08T03:30:19.780Z,67.90
2019-06-08T03:32:55.718Z,67.80
2019-06-08T03:35:16.725Z,68.10
2019-06-08T03:37:44.587Z,68.10
2019-06-08T03:40:12.685Z,68.30
2019-06-08T03:42:40.015Z,68.40
2019-06-08T03:45:07.470Z,68.40
2019-06-08T03:47:36.829Z,68.50
2019-06-08T03:50:04.211Z,68.60
2019-06-08T03:52:31.784Z,68.80
2019-06-08T03:54:59.150Z,69.00
2019-06-08T03:57:26.473Z,69.20
2019-06-08T03:59:53.730Z,70.00
2019-06-08T04:02:21.094Z,69.50
2019-06-08T04:04:49.997Z,69.80
2019-06-08T04:07:17.512Z,70.10
2019-06-08T04:09:45.954Z,70.20
2019-06-08T04:12:13.346Z,70.20
2019-06-08T04:14:42.152Z,70.40
2019-06-08T04:17:09.929Z,70.50
2019-06-08T04:19:38.122Z,70.60
2019-06-08T04:22:05.938Z,70.80
2019-06-08T04:24:33.198Z,70.80
2019-06-08T04:27:00.574Z,70.80
2019-06-08T04:29:27.992Z,70.50
2019-06-08T04:31:55.223Z,70.80
2019-06-08T04:34:22.554Z,70.80
2019-06-08T04:36:50.419Z,70.90
2019-06-08T04:39:18.018Z,70.90
2019-06-08T04:41:46.951Z,70.60
2019-06-08T04:44:14.598Z,70.50
2019-06-08T04:46:43.161Z,70.20
2019-06-08T04:49:11.169Z,70.00
2019-06-08T04:51:38.942Z,69.80
2019-06-08T04:54:07.626Z,69.80
2019-06-08T04:56:34.934Z,69.40
2019-06-08T04:59:02.457Z,69.00
2019-06-08T05:01:29.758Z,68.00
2019-06-08T05:03:57.094Z,67.70
2019-06-08T05:06:24.460Z,67.60
2019-06-08T05:08:51.797Z,67.90
2019-06-08T05:11:19.284Z,68.10
2019-06-08T05:13:47.662Z,68.30
2019-06-08T05:16:15.089Z,68.00
2019-06-08T05:18:43.107Z,67.50
2019-06-08T05:21:10.605Z,67.60
2019-06-08T05:23:39.228Z,66.90
2019-06-08T05:26:06.706Z,66.90
2019-06-08T05:28:34.035Z,66.90
2019-06-08T05:31:01.373Z,67.00
2019-06-08T05:33:28.714Z,66.60
2019-06-08T05:35:56.028Z,66.40
2019-06-08T05:38:23.357Z,66.70
2019-06-08T05:40:50.717Z,66.20
2019-06-08T05:43:18.128Z,66.30
2019-06-08T05:45:45.744Z,66.20
2019-06-08T05:48:13.166Z,66.80
2019-06-08T05:50:55.821Z,66.70
2019-06-08T05:53:09.806Z,66.60
2019-06-08T05:55:37.164Z,66.40
2019-06-08T05:58:04.593Z,66.50
2019-06-08T06:00:31.962Z,66.60
2019-06-08T06:02:59.351Z,66.50
2019-06-08T06:05:26.690Z,66.20
2019-06-08T06:07:54.013Z,66.20
2019-06-08T06:10:21.457Z,66.20
2019-06-08T06:12:49.102Z,66.60
2019-06-08T06:15:17.032Z,66.20
2019-06-08T06:17:46.671Z,66.30
2019-06-08T06:20:14.425Z,66.10
2019-06-08T06:22:42.330Z,66.30
2019-06-08T06:25:11.110Z,66.60
2019-06-08T06:27:38.417Z,66.70
2019-06-08T06:30:05.865Z,66.50
2019-06-08T06:32:33.241Z,66.70
2019-06-08T06:35:00.526Z,67.10
2019-06-08T06:37:27.866Z,66.50
2019-06-08T06:39:55.201Z,66.60
2019-06-08T06:42:24.735Z,66.50
2019-06-08T06:44:53.805Z,66.10
2019-06-08T06:47:21.185Z,66.10
2019-06-08T06:49:48.516Z,65.80
2019-06-08T06:52:15.851Z,65.50
2019-06-08T06:54:43.211Z,65.20
2019-06-08T06:57:10.430Z,65.10
2019-06-08T06:59:37.851Z,65.10
2019-06-08T07:02:05.179Z,64.80
2019-06-08T07:04:32.499Z,64.70
2019-06-08T07:07:00.166Z,64.80
2019-06-08T07:09:27.590Z,64.30
2019-06-08T07:11:56.685Z,63.90
2019-06-08T07:14:24.468Z,63.90
2019-06-08T07:16:52.318Z,64.40
2019-06-08T07:19:19.531Z,64.70
2019-06-08T07:21:48.219Z,64.00
2019-06-08T07:24:15.666Z,64.70
2019-06-08T07:26:43.010Z,64.40
2019-06-08T07:29:10.438Z,64.30
2019-06-08T07:31:37.797Z,64.30
2019-06-08T07:34:05.154Z,64.20
2019-06-08T07:36:32.565Z,64.20
2019-06-08T07:38:59.933Z,63.70
2019-06-08T07:41:27.180Z,63.70
2019-06-08T07:43:54.578Z,63.20
2019-06-08T07:46:22.051Z,62.50
2019-06-08T07:48:50.418Z,61.20
2019-06-08T07:51:17.801Z,61.30
2019-06-08T07:53:45.116Z,61.50
2019-06-08T07:56:12.460Z,61.90
2019-06-08T07:58:39.872Z,62.40
2019-06-08T08:01:08.333Z,62.50
2019-06-08T08:03:35.835Z,62.70
2019-06-08T08:06:03.159Z,62.90
2019-06-08T08:08:30.424Z,62.70
2019-06-08T08:10:58.969Z,63.10
2019-06-08T08:13:26.295Z,63.00
2019-06-08T08:15:55.073Z,62.50
2019-06-08T08:18:22.773Z,62.40
2019-06-08T08:20:51.089Z,61.60
2019-06-08T08:23:18.461Z,60.60
2019-06-08T08:25:47.421Z,59.80
2019-06-08T08:28:14.783Z,59.60
2019-06-08T08:30:42.132Z,59.00
2019-06-08T08:33:09.472Z,58.60
2019-06-08T08:35:38.114Z,58.00
2019-06-08T08:38:07.541Z,58.30
2019-06-08T08:40:34.835Z,58.70
2019-06-08T08:43:02.209Z,59.10
2019-06-08T08:45:29.509Z,60.00
2019-06-08T08:48:14.414Z,60.50
2019-06-08T08:50:28.174Z,61.30
2019-06-08T08:52:56.915Z,61.90
2019-06-08T08:55:24.413Z,62.40
2019-06-08T08:57:52.163Z,62.90
2019-06-08T09:00:20.965Z,63.00
2019-06-08T09:02:50.241Z,63.20
2019-06-08T09:05:18.153Z,63.10
2019-06-08T09:07:48.054Z,62.60
2019-06-08T09:10:15.128Z,62.50
2019-06-08T09:12:42.434Z,62.80
2019-06-08T09:15:09.806Z,62.90
2019-06-08T09:17:38.813Z,62.00
2019-06-08T09:20:11.108Z,59.10
2019-06-08T09:22:50.200Z,57.70
2019-06-08T09:25:04.972Z,55.70
2019-06-08T09:27:32.372Z,55.90
2019-06-08T09:30:02.830Z,56.00
2019-06-08T09:32:28.756Z,55.00
2019-06-08T09:34:59.236Z,54.10
2019-06-08T09:37:25.638Z,54.00
2019-06-08T09:39:53.922Z,53.90
2019-06-08T09:42:21.452Z,53.90
2019-06-08T09:44:48.857Z,54.20
2019-06-08T09:47:18.193Z,55.10
2019-06-08T09:49:47.876Z,56.40
2019-06-08T09:52:14.467Z,56.70
2019-06-08T09:54:41.820Z,57.20
2019-06-08T09:57:09.685Z,58.00
2019-06-08T09:59:38.546Z,58.10
2019-06-08T10:02:12.528Z,58.40
2019-06-08T10:04:38.522Z,58.60
2019-06-08T10:07:05.698Z,59.40
2019-06-08T10:09:33.078Z,59.30
2019-06-08T10:12:03.436Z,59.50
2019-06-08T10:14:29.602Z,59.40
2019-06-08T10:17:00.218Z,59.30
2019-06-08T10:19:26.174Z,59.20
2019-06-08T10:21:54.719Z,59.00
2019-06-08T10:24:22.066Z,57.70
2019-06-08T10:26:49.389Z,58.30
2019-06-08T10:29:18.474Z,58.70
2019-06-08T10:31:48.217Z,58.10
2019-06-08T10:34:15.249Z,57.40
2019-06-08T10:36:42.611Z,57.10
2019-06-08T10:39:11.467Z,57.30
2019-06-08T10:41:39.402Z,57.70
2019-06-08T10:44:08.581Z,58.20
2019-06-08T10:46:40.355Z,57.80
2019-06-08T10:49:08.535Z,58.30
2019-06-08T10:51:34.613Z,58.60
2019-06-08T10:54:02.206Z,58.80
2019-06-08T10:56:31.136Z,58.80
2019-06-08T10:59:01.626Z,59.00
2019-06-08T11:01:28.313Z,58.80
2019-06-08T11:03:58.062Z,57.60
2019-06-08T11:06:24.968Z,56.70
2019-06-08T11:08:52.412Z,56.50
2019-06-08T11:11:20.491Z,56.90
2019-06-08T11:13:50.385Z,56.80
2019-06-08T11:16:17.997Z,56.70
2019-06-08T11:18:45.621Z,56.20
2019-06-08T11:21:13.145Z,55.50
2019-06-08T11:23:41.601Z,56.10
2019-06-08T11:26:17.861Z,56.20
2019-06-08T11:28:38.373Z,55.80
2019-06-08T11:31:08.405Z,53.90
2019-06-08T11:33:34.979Z,52.30
2019-06-08T11:36:05.897Z,52.90
2019-06-08T11:38:31.509Z,53.90
2019-06-08T11:41:00.905Z,54.60
2019-06-08T11:43:28.715Z,54.90
2019-06-08T11:45:58.276Z,55.30
2019-06-08T11:48:25.421Z,56.10
2019-06-08T11:50:52.737Z,55.30
2019-06-08T11:53:20.989Z,55.00
2019-06-08T11:55:51.055Z,54.50
2019-06-08T11:58:22.563Z,54.30
2019-06-08T12:00:52.273Z,54.10
2019-06-08T12:03:19.603Z,54.00
2019-06-08T12:05:47.792Z,53.90
2019-06-08T12:08:17.570Z,53.40
2019-06-08T12:10:45.421Z,54.60
2019-06-08T12:13:13.230Z,54.80
2019-06-08T12:15:41.774Z,55.50
2019-06-08T12:18:10.986Z,55.40
2019-06-08T12:20:38.394Z,55.50
2019-06-08T12:23:05.958Z,54.50
2019-06-08T12:25:33.348Z,52.90
2019-06-08T12:28:00.742Z,53.30
2019-06-08T12:30:29.672Z,52.90
2019-06-08T12:32:58.156Z,53.10
2019-06-08T12:35:25.573Z,53.50
2019-06-08T12:37:52.901Z,54.10
2019-06-08T12:40:20.928Z,54.20
2019-06-08T12:42:48.367Z,54.20
2019-06-08T12:45:15.721Z,53.50
2019-06-08T12:47:42.964Z,52.40
2019-06-08T12:50:13.360Z,51.70
2019-06-08T12:52:42.529Z,51.80
2019-06-08T12:55:14.284Z,51.90
2019-06-08T12:57:38.762Z,52.80
2019-06-08T13:00:08.460Z,52.40
2019-06-08T13:02:38.240Z,52.20
2019-06-08T13:05:05.572Z,52.60
2019-06-08T13:07:32.827Z,51.70
2019-06-08T13:10:00.223Z,51.80
2019-06-08T13:12:27.529Z,51.70
2019-06-08T13:14:54.881Z,50.90
2019-06-08T13:17:22.145Z,50.90
2019-06-08T13:19:49.465Z,50.90
2019-06-08T13:22:19.359Z,51.00
2019-06-08T13:24:47.852Z,50.60
2019-06-08T13:27:16.666Z,50.80
2019-06-08T13:29:44.440Z,51.30
2019-06-08T13:32:11.785Z,51.50
2019-06-08T13:34:39.089Z,51.10
2019-06-08T13:37:08.388Z,51.90
2019-06-08T13:39:35.901Z,52.60
2019-06-08T13:42:03.290Z,53.00
2019-06-08T13:44:30.633Z,53.00
2019-06-08T13:46:57.995Z,53.10
2019-06-08T13:49:29.706Z,52.50
2019-06-08T13:51:58.175Z,51.30
2019-06-08T13:54:24.886Z,51.60
2019-06-08T13:56:52.189Z,51.80
2019-06-08T13:59:25.775Z,51.10
2019-06-08T14:01:48.888Z,51.10
2019-06-08T14:04:18.955Z,51.30
2019-06-08T14:06:45.354Z,51.70
2019-06-08T14:09:12.704Z,51.70
2019-06-08T14:11:40.003Z,51.70
2019-06-08T14:14:08.393Z,51.30
2019-06-08T14:16:38.682Z,51.40
2019-06-08T14:19:05.181Z,51.30
2019-06-08T14:21:41.007Z,51.40
2019-06-08T14:24:01.952Z,51.20
2019-06-08T14:26:29.675Z,51.00
2019-06-08T14:29:00.833Z,49.90
2019-06-08T14:31:29.970Z,49.70
2019-06-08T14:33:55.501Z,49.30
2019-06-08T14:36:24.269Z,49.80
2019-06-08T14:38:52.045Z,50.50
2019-06-08T14:41:19.832Z,50.70
2019-06-08T14:43:50.882Z,50.70
2019-06-08T14:46:19.321Z,50.80
2019-06-08T14:48:46.756Z,51.20
2019-06-08T14:51:15.173Z,51.10
2019-06-08T14:53:42.543Z,51.20
2019-06-08T14:56:09.879Z,50.10
2019-06-08T14:58:39.064Z,50.00
2019-06-08T15:01:07.909Z,50.20
2019-06-08T15:03:37.710Z,51.30
2019-06-08T15:06:04.547Z,51.90
2019-06-08T15:08:31.801Z,52.40
2019-06-08T15:10:59.040Z,52.90
2019-06-08T15:13:28.578Z,52.60
2019-06-08T15:15:55.770Z,52.40
2019-06-08T15:18:23.869Z,52.70
2019-06-08T15:20:51.262Z,52.40
2019-06-08T15:23:21.242Z,51.90
2019-06-08T15:25:47.812Z,52.30
2019-06-08T15:28:15.127Z,52.30
2019-06-08T15:30:42.470Z,52.60
2019-06-08T15:33:09.677Z,52.50
2019-06-08T15:35:37.820Z,52.50
2019-06-08T15:38:05.268Z,51.70
2019-06-08T15:40:32.619Z,51.10
2019-06-08T15:42:59.952Z,50.60
2019-06-08T15:45:30.986Z,50.10
2019-06-08T15:47:58.507Z,49.10
2019-06-08T15:50:26.251Z,49.20
2019-06-08T15:52:53.579Z,49.50
2019-06-08T15:55:20.798Z,50.00
2019-06-08T15:57:48.238Z,49.90
2019-06-08T16:00:15.653Z,50.30
2019-06-08T16:02:42.984Z,49.80
2019-06-08T16:05:10.457Z,49.90
2019-06-08T16:07:37.787Z,50.00
2019-06-08T16:10:05.181Z,50.20
2019-06-08T16:12:35.081Z,50.90
2019-06-08T16:15:03.130Z,51.20
2019-06-08T16:17:31.254Z,51.10
2019-06-08T16:19:58.669Z,51.40
2019-06-08T16:22:25.921Z,49.90
2019-06-08T16:24:53.225Z,50.00
2019-06-08T16:27:20.598Z,50.00
2019-06-08T16:29:47.919Z,49.40
2019-06-08T16:32:17.459Z,50.00
2019-06-08T16:34:44.863Z,50.40
2019-06-08T16:37:12.421Z,50.80
2019-06-08T16:39:39.857Z,51.10
2019-06-08T16:42:07.233Z,51.70
2019-06-08T16:44:34.859Z,52.20
2019-06-08T16:47:02.530Z,52.80
2019-06-08T16:49:29.742Z,53.20
2019-06-08T16:51:57.159Z,53.70
2019-06-08T16:54:24.497Z,54.00
2019-06-08T16:56:51.929Z,54.00
2019-06-08T16:59:19.323Z,54.10
2019-06-08T17:01:46.586Z,54.30
2019-06-08T17:04:14.011Z,54.40
2019-06-08T17:06:41.369Z,54.50
2019-06-08T17:09:08.726Z,54.70
2019-06-08T17:11:36.568Z,54.80
2019-06-08T17:14:03.965Z,54.90
2019-06-08T17:16:32.211Z,55.40
2019-06-08T17:18:59.614Z,57.60
2019-06-08T17:21:26.969Z,61.90
2019-06-08T17:23:54.288Z,66.70
2019-06-08T17:26:21.523Z,70.80
2019-06-08T17:28:48.914Z,74.10
2019-06-08T17:31:16.221Z,75.70
2019-06-08T17:33:43.561Z,76.40
2019-06-08T17:36:10.779Z,76.60
2019-06-08T17:38:39.364Z,77.90
2019-06-08T17:41:06.810Z,78.20
2019-06-08T17:43:34.237Z,79.30
2019-06-08T17:46:01.544Z,81.20
2019-06-08T17:48:28.967Z,81.80
2019-06-08T17:50:56.228Z,83.20
2019-06-08T17:53:23.488Z,83.70
2019-06-08T17:55:51.012Z,82.60
2019-06-08T17:58:21.165Z,80.80
2019-06-08T18:00:47.623Z,80.40
2019-06-08T18:03:17.114Z,79.30
2019-06-08T18:05:45.637Z,78.80
2019-06-08T18:08:13.174Z,76.50
2019-06-08T18:10:41.787Z,76.20
2019-06-08T18:13:10.137Z,76.10
2019-06-08T18:15:39.121Z,76.10
2019-06-08T18:18:08.542Z,76.10
2019-06-08T18:20:38.600Z,75.70
2019-06-08T18:23:05.133Z,76.60
2019-06-08T18:25:32.488Z,75.60
2019-06-08T18:28:09.896Z,75.50
2019-06-08T18:30:29.094Z,75.70
2019-06-08T18:32:58.048Z,76.20
2019-06-08T18:35:27.621Z,76.20
2019-06-08T18:37:54.724Z,76.60
2019-06-08T18:40:22.102Z,77.30
2019-06-08T18:42:49.428Z,77.50
2019-06-08T18:45:18.191Z,77.70
2019-06-08T18:47:48.163Z,78.40
2019-06-08T18:50:17.331Z,78.90
2019-06-08T18:52:45.345Z,79.20
2019-06-08T18:55:13.893Z,79.50
2019-06-08T18:57:42.609Z,79.90
2019-06-08T19:00:11.693Z,80.00
2019-06-08T19:02:43.078Z,80.40
2019-06-08T19:05:08.574Z,80.40
2019-06-08T19:07:36.978Z,80.50
2019-06-08T19:10:04.815Z,80.70
2019-06-08T19:12:32.206Z,80.80
2019-06-08T19:14:59.533Z,80.80
2019-06-08T19:17:28.427Z,80.80
2019-06-08T19:19:57.935Z,80.90
2019-06-08T19:22:25.156Z,81.10
2019-06-08T19:24:52.685Z,81.20
2019-06-08T19:27:20.078Z,80.90
2019-06-08T19:29:51.078Z,80.80
2019-06-08T19:32:17.125Z,80.90
2019-06-08T19:34:47.719Z,80.80
2019-06-08T19:37:13.986Z,80.80
2019-06-08T19:39:44.347Z,81.00
2019-06-08T19:42:10.665Z,81.10
2019-06-08T19:44:44.091Z,81.40
2019-06-08T19:47:08.112Z,81.60
2019-06-08T19:49:35.539Z,82.00
2019-06-08T19:52:02.966Z,82.50
2019-06-08T19:54:30.416Z,82.70
2019-06-08T19:56:57.814Z,82.90
2019-06-08T19:59:27.319Z,83.30
2019-06-08T20:01:56.509Z,83.60
2019-06-08T20:04:23.965Z,84.00
2019-06-08T20:06:53.106Z,84.20
2019-06-08T20:09:20.480Z,84.40
2019-06-08T20:11:54.232Z,84.70
2019-06-08T20:14:17.002Z,84.90
2019-06-08T20:16:44.743Z,85.10
2019-06-08T20:19:12.158Z,85.30
2019-06-08T20:21:40.892Z,85.60
2019-06-08T20:24:10.469Z,85.80
2019-06-08T20:26:37.623Z,86.60
2019-06-08T20:29:13.542Z,86.00
2019-06-08T20:31:34.273Z,86.20
2019-06-08T20:34:01.936Z,87.00
2019-06-08T20:36:29.350Z,86.40
2019-06-08T20:38:58.334Z,86.50
2019-06-08T20:41:27.751Z,86.80
2019-06-08T20:43:57.779Z,86.80
2019-06-08T20:46:24.445Z,87.00
2019-06-08T20:48:53.131Z,87.20
2019-06-08T20:51:20.765Z,87.40
2019-06-08T20:53:50.473Z,87.80
2019-06-08T20:56:17.488Z,88.10
2019-06-08T20:58:45.291Z,88.20
2019-06-08T21:01:14.149Z,88.60
2019-06-08T21:03:41.508Z,88.60
2019-06-08T21:06:08.847Z,88.80
2019-06-08T21:08:37.215Z,88.90
2019-06-08T21:11:04.777Z,89.10
2019-06-08T21:13:32.236Z,89.20
2019-06-08T21:16:00.697Z,89.30
2019-06-08T21:18:28.270Z,89.60
2019-06-08T21:20:57.850Z,89.80
2019-06-08T21:23:24.746Z,90.00
2019-06-08T21:25:54.028Z,90.00
2019-06-08T21:28:21.570Z,90.10
2019-06-08T21:30:51.420Z,90.20
2019-06-08T21:33:18.078Z,90.30
2019-06-08T21:35:47.859Z,90.50
2019-06-08T21:38:23.425Z,90.60
2019-06-08T21:40:44.018Z,90.70
2019-06-08T21:43:11.336Z,90.80
2019-06-08T21:45:38.720Z,91.00
2019-06-08T21:48:07.514Z,91.10
2019-06-08T21:50:37.115Z,91.20
2019-06-08T21:53:04.359Z,91.30
2019-06-08T21:55:31.698Z,91.50
2019-06-08T21:58:01.494Z,91.60
2019-06-08T22:00:39.395Z,91.70
2019-06-08T22:02:58.906Z,91.70
2019-06-08T22:05:26.798Z,91.80
2019-06-08T22:07:54.121Z,91.80
2019-06-08T22:10:21.385Z,91.90
2019-06-08T22:12:48.757Z,92.00
2019-06-08T22:15:18.276Z,92.10
2019-06-08T22:17:47.652Z,92.10
2019-06-08T22:20:15.091Z,92.20
2019-06-08T22:22:42.464Z,92.20
2019-06-08T22:25:10.063Z,92.20
2019-06-08T22:27:38.167Z,92.20
2019-06-08T22:30:11.575Z,92.20
2019-06-08T22:32:38.300Z,92.10
2019-06-08T22:35:07.810Z,92.10
2019-06-08T22:37:34.838Z,92.00
2019-06-08T22:40:03.558Z,92.10
2019-06-08T22:42:31.063Z,92.10
2019-06-08T22:45:00.258Z,92.10
2019-06-08T22:47:27.961Z,92.20
2019-06-08T22:49:57.518Z,92.20
2019-06-08T22:52:24.631Z,92.20
2019-06-08T22:54:55.616Z,92.20
2019-06-08T22:57:21.397Z,92.10
2019-06-08T22:59:48.785Z,92.10
2019-06-08T23:02:18.263Z,92.10
2019-06-08T23:04:47.421Z,92.00
2019-06-08T23:07:26.553Z,92.00
2019-06-08T23:09:44.030Z,91.90
2019-06-08T23:12:11.381Z,91.90
2019-06-08T23:14:38.833Z,91.90
2019-06-08T23:17:08.490Z,91.90
2019-06-08T23:19:37.389Z,91.90
2019-06-08T23:22:06.180Z,91.90
2019-06-08T23:24:33.809Z,91.90
2019-06-08T23:27:04.270Z,92.40
2019-06-08T23:29:31.886Z,92.10
2019-06-08T23:32:00.981Z,92.20
2019-06-08T23:34:28.466Z,92.30
2019-06-08T23:37:00.910Z,92.40
2019-06-08T23:39:25.261Z,92.30
2019-06-08T23:41:52.748Z,92.30
2019-06-08T23:44:21.019Z,92.40
2019-06-08T23:46:48.279Z,92.50
2019-06-08T23:49:18.483Z,92.50
2019-06-08T23:51:44.928Z,92.60
2019-06-08T23:54:12.616Z,92.60
2019-06-08T23:56:39.975Z,92.70
2019-06-08T23:59:09.326Z,92.70
